createdAt,value
2023-01-09T00:00:17.064Z,62.04
2023-01-09T00:01:16.961Z,61.39
2023-01-09T00:02:17.013Z,64.13
2023-01-09T00:03:16.944Z,65.26
2023-01-09T00:04:18.010Z,63.16
2023-01-09T00:05:16.946Z,59.94
2023-01-09T00:06:16.916Z,64.61
2023-01-09T00:07:16.908Z,64.61
2023-01-09T00:08:16.894Z,62.68
2023-01-09T00:09:16.916Z,66.87
2023-01-09T00:10:16.875Z,66.06
2023-01-09T00:11:16.869Z,64.45
2023-01-09T00:12:16.852Z,64.78
2023-01-09T00:13:16.842Z,64.45
2023-01-09T00:14:16.862Z,64.78
2023-01-09T00:15:16.838Z,64.94
2023-01-09T00:16:16.866Z,65.58
2023-01-09T00:17:16.802Z,63.65
2023-01-09T00:18:16.800Z,68.16
2023-01-09T00:19:16.803Z,63.65
2023-01-09T00:20:16.776Z,65.10
2023-01-09T00:21:16.760Z,61.23
2023-01-09T00:22:16.754Z,65.90
2023-01-09T00:23:16.750Z,60.91
2023-01-09T00:24:16.742Z,66.87
2023-01-09T00:25:16.752Z,62.36
2023-01-09T00:26:16.726Z,63.00
2023-01-09T00:27:16.709Z,60.75
2023-01-09T00:28:16.699Z,66.06
2023-01-09T00:29:16.704Z,64.61
2023-01-09T00:30:16.678Z,67.68
2023-01-09T00:31:16.667Z,63.65
2023-01-09T00:32:16.676Z,65.26
2023-01-09T00:33:16.640Z,65.42
2023-01-09T00:34:16.643Z,59.78
2023-01-09T00:35:16.657Z,63.33
2023-01-09T00:36:16.625Z,63.97
2023-01-09T00:37:16.604Z,62.68
2023-01-09T00:38:16.603Z,61.71
2023-01-09T00:39:16.626Z,65.26
2023-01-09T00:40:16.578Z,67.35
2023-01-09T00:41:16.564Z,61.39
2023-01-09T00:42:16.575Z,65.10
2023-01-09T00:43:16.545Z,62.36
2023-01-09T00:44:16.546Z,64.94
2023-01-09T00:45:16.552Z,63.65
2023-01-09T00:46:16.566Z,62.84
2023-01-09T00:47:16.538Z,66.06
2023-01-09T00:48:16.508Z,64.13
2023-01-09T00:49:16.518Z,62.04
2023-01-09T00:50:16.482Z,66.55
2023-01-09T00:51:16.470Z,65.74
2023-01-09T00:52:16.466Z,63.16
2023-01-09T00:53:16.452Z,61.23
2023-01-09T00:54:16.441Z,64.13
2023-01-09T00:55:16.453Z,63.16
2023-01-09T00:56:16.430Z,60.75
2023-01-09T00:57:16.412Z,63.49
2023-01-09T00:58:16.399Z,65.10
2023-01-09T00:59:16.429Z,64.45
2023-01-09T01:00:16.393Z,61.23
2023-01-09T01:01:16.467Z,67.03
2023-01-09T01:02:16.545Z,60.75
2023-01-09T01:03:16.348Z,61.71
2023-01-09T01:04:16.339Z,62.04
2023-01-09T01:05:16.350Z,65.90
2023-01-09T01:06:16.319Z,65.90
2023-01-09T01:07:16.312Z,63.00
2023-01-09T01:08:16.310Z,67.03
2023-01-09T01:09:16.288Z,64.29
2023-01-09T01:10:16.317Z,68.00
2023-01-09T01:11:16.270Z,67.35
2023-01-09T01:12:16.256Z,64.94
2023-01-09T01:13:16.248Z,61.87
2023-01-09T01:14:16.235Z,64.61
2023-01-09T01:15:16.252Z,66.87
2023-01-09T01:16:16.233Z,63.16
2023-01-09T01:17:16.188Z,64.13
2023-01-09T01:18:16.199Z,59.62
2023-01-09T01:19:16.508Z,60.91
2023-01-09T01:20:16.209Z,65.90
2023-01-09T01:21:16.152Z,67.19
2023-01-09T01:22:16.160Z,66.06
2023-01-09T01:23:16.166Z,65.42
2023-01-09T01:24:16.134Z,63.97
2023-01-09T01:25:16.139Z,65.90
2023-01-09T01:26:16.144Z,64.94
2023-01-09T01:27:16.111Z,71.06
2023-01-09T01:28:16.114Z,67.68
2023-01-09T01:29:16.083Z,65.58
2023-01-09T01:30:16.098Z,63.00
2023-01-09T01:31:16.069Z,64.13
2023-01-09T01:32:16.078Z,61.71
2023-01-09T01:33:16.042Z,67.03
2023-01-09T01:34:16.045Z,66.23
2023-01-09T01:35:16.047Z,65.58
2023-01-09T01:36:16.019Z,64.45
2023-01-09T01:37:16.015Z,65.58
2023-01-09T01:38:16.003Z,58.49
2023-01-09T01:39:15.983Z,61.55
2023-01-09T01:40:16.000Z,63.97
2023-01-09T01:41:15.957Z,67.19
2023-01-09T01:42:15.958Z,63.16
2023-01-09T01:43:15.946Z,60.59
2023-01-09T01:44:15.953Z,66.06
2023-01-09T01:45:15.946Z,67.68
2023-01-09T01:46:15.953Z,62.04
2023-01-09T01:47:15.919Z,68.32
2023-01-09T01:48:15.906Z,65.90
2023-01-09T01:49:15.896Z,64.78
2023-01-09T01:50:15.913Z,65.74
2023-01-09T01:51:15.866Z,66.23
2023-01-09T01:52:15.866Z,62.84
2023-01-09T01:53:15.844Z,62.36
2023-01-09T01:54:15.836Z,66.23
2023-01-09T01:55:15.851Z,65.10
2023-01-09T01:56:15.823Z,67.51
2023-01-09T01:57:15.806Z,61.71
2023-01-09T01:58:15.802Z,59.94
2023-01-09T01:59:15.787Z,65.26
2023-01-09T02:00:15.798Z,65.10
2023-01-09T02:01:15.823Z,63.97
2023-01-09T02:02:15.866Z,65.74
2023-01-09T02:03:15.751Z,64.61
2023-01-09T02:04:15.738Z,65.10
2023-01-09T02:05:15.754Z,65.26
2023-01-09T02:06:15.720Z,64.45
2023-01-09T02:07:15.711Z,63.49
2023-01-09T02:08:15.693Z,66.55
2023-01-09T02:09:15.696Z,63.65
2023-01-09T02:10:15.712Z,62.68
2023-01-09T02:11:15.664Z,63.16
2023-01-09T02:12:15.656Z,62.68
2023-01-09T02:13:15.639Z,65.90
2023-01-09T02:14:15.652Z,63.16
2023-01-09T02:15:15.647Z,65.74
2023-01-09T02:16:15.655Z,68.16
2023-01-09T02:17:15.608Z,66.39
2023-01-09T02:18:15.605Z,64.78
2023-01-09T02:19:15.610Z,67.51
2023-01-09T02:20:15.607Z,66.87
2023-01-09T02:21:15.573Z,64.78
2023-01-09T02:22:15.562Z,63.49
2023-01-09T02:23:15.552Z,64.61
2023-01-09T02:24:15.523Z,71.54
2023-01-09T02:25:15.553Z,65.10
2023-01-09T02:26:15.516Z,66.06
2023-01-09T02:27:15.513Z,61.55
2023-01-09T02:28:15.497Z,65.58
2023-01-09T02:29:15.480Z,66.39
2023-01-09T02:30:15.490Z,63.33
2023-01-09T02:31:15.488Z,65.42
2023-01-09T02:32:15.452Z,63.16
2023-01-09T02:33:15.449Z,64.78
2023-01-09T02:34:15.431Z,68.00
2023-01-09T02:35:15.441Z,65.42
2023-01-09T02:36:15.398Z,67.51
2023-01-09T02:37:15.405Z,63.65
2023-01-09T02:38:15.395Z,64.13
2023-01-09T02:39:15.384Z,63.49
2023-01-09T02:40:15.379Z,65.58
2023-01-09T02:41:15.362Z,64.13
2023-01-09T02:42:15.351Z,64.45
2023-01-09T02:43:15.346Z,65.10
2023-01-09T02:44:15.331Z,65.42
2023-01-09T02:45:15.336Z,64.61
2023-01-09T02:46:16.314Z,65.26
2023-01-09T02:47:15.303Z,63.49
2023-01-09T02:48:15.284Z,65.26
2023-01-09T02:49:15.278Z,66.55
2023-01-09T02:50:15.292Z,68.64
2023-01-09T02:51:15.254Z,63.65
2023-01-09T02:52:15.242Z,60.10
2023-01-09T02:53:15.235Z,65.10
2023-01-09T02:54:15.229Z,65.10
2023-01-09T02:55:15.254Z,63.49
2023-01-09T02:56:15.209Z,65.42
2023-01-09T02:57:15.201Z,66.71
2023-01-09T02:58:15.192Z,67.35
2023-01-09T02:59:15.214Z,63.49
2023-01-09T03:00:15.190Z,63.65
2023-01-09T03:01:15.351Z,65.58
2023-01-09T03:02:15.164Z,66.06
2023-01-09T03:03:15.190Z,67.51
2023-01-09T03:04:15.128Z,63.16
2023-01-09T03:05:15.140Z,65.90
2023-01-09T03:06:15.108Z,64.94
2023-01-09T03:07:15.101Z,65.26
2023-01-09T03:08:15.112Z,66.87
2023-01-09T03:09:15.086Z,63.65
2023-01-09T03:10:15.126Z,65.42
2023-01-09T03:11:15.060Z,66.39
2023-01-09T03:12:15.036Z,65.10
2023-01-09T03:13:15.036Z,63.16
2023-01-09T03:14:15.029Z,67.03
2023-01-09T03:15:15.047Z,63.00
2023-01-09T03:16:15.042Z,63.33
2023-01-09T03:17:15.004Z,66.39
2023-01-09T03:18:14.995Z,68.96
2023-01-09T03:19:14.981Z,65.58
2023-01-09T03:20:14.985Z,67.35
2023-01-09T03:21:14.961Z,66.06
2023-01-09T03:22:14.960Z,66.39
2023-01-09T03:23:14.947Z,66.23
2023-01-09T03:24:14.918Z,66.39
2023-01-09T03:25:14.944Z,65.90
2023-01-09T03:26:14.912Z,68.48
2023-01-09T03:27:14.907Z,64.61
2023-01-09T03:28:14.883Z,68.80
2023-01-09T03:29:14.881Z,68.96
2023-01-09T03:30:14.862Z,65.74
2023-01-09T03:31:15.912Z,66.39
2023-01-09T03:32:14.850Z,68.16
2023-01-09T03:33:14.847Z,66.71
2023-01-09T03:34:14.831Z,70.58
2023-01-09T03:35:14.812Z,65.58
2023-01-09T03:36:14.836Z,67.51
2023-01-09T03:37:14.801Z,65.90
2023-01-09T03:38:14.792Z,65.26
2023-01-09T03:39:14.781Z,66.23
2023-01-09T03:40:14.774Z,64.45
2023-01-09T03:41:14.785Z,67.68
2023-01-09T03:42:14.754Z,68.48
2023-01-09T03:43:14.733Z,65.58
2023-01-09T03:44:14.733Z,67.03
2023-01-09T03:45:14.717Z,66.39
2023-01-09T03:46:14.776Z,66.23
2023-01-09T03:47:14.705Z,65.74
2023-01-09T03:48:14.687Z,64.13
2023-01-09T03:49:14.686Z,63.65
2023-01-09T03:50:14.693Z,64.61
2023-01-09T03:51:14.677Z,67.51
2023-01-09T03:52:14.669Z,68.32
2023-01-09T03:53:14.697Z,66.39
2023-01-09T03:54:14.632Z,66.87
2023-01-09T03:55:15.731Z,66.55
2023-01-09T03:56:14.649Z,66.06
2023-01-09T03:57:14.606Z,65.10
2023-01-09T03:58:14.595Z,65.74
2023-01-09T03:59:14.590Z,69.29
2023-01-09T04:00:14.613Z,67.51
2023-01-09T04:01:14.685Z,68.00
2023-01-09T04:02:14.797Z,66.06
2023-01-09T04:03:14.543Z,69.61
2023-01-09T04:04:14.552Z,67.68
2023-01-09T04:05:14.527Z,68.48
2023-01-09T04:06:14.539Z,68.16
2023-01-09T04:07:14.495Z,65.74
2023-01-09T04:08:14.498Z,68.48
2023-01-09T04:09:14.484Z,68.80
2023-01-09T04:10:14.470Z,70.25
2023-01-09T04:11:14.482Z,71.06
2023-01-09T04:12:14.459Z,68.32
2023-01-09T04:13:14.504Z,67.19
2023-01-09T04:14:14.430Z,68.96
2023-01-09T04:15:14.432Z,68.64
2023-01-09T04:16:14.453Z,68.96
2023-01-09T04:17:14.409Z,68.96
2023-01-09T04:18:14.403Z,69.77
2023-01-09T04:19:14.378Z,69.13
2023-01-09T04:20:14.376Z,70.09
2023-01-09T04:21:14.392Z,70.42
2023-01-09T04:22:14.468Z,69.45
2023-01-09T04:23:14.354Z,70.25
2023-01-09T04:24:14.333Z,69.93
2023-01-09T04:25:14.330Z,68.00
2023-01-09T04:26:14.337Z,69.77
2023-01-09T04:27:14.295Z,70.58
2023-01-09T04:28:14.296Z,70.90
2023-01-09T04:29:14.295Z,70.90
2023-01-09T04:30:14.273Z,70.74
2023-01-09T04:31:14.339Z,70.25
2023-01-09T04:32:14.249Z,69.29
2023-01-09T04:33:14.243Z,70.90
2023-01-09T04:34:14.229Z,71.54
2023-01-09T04:35:14.218Z,70.42
2023-01-09T04:36:14.225Z,69.93
2023-01-09T04:37:14.197Z,71.06
2023-01-09T04:38:14.189Z,70.90
2023-01-09T04:39:14.172Z,72.51
2023-01-09T04:40:14.217Z,71.70
2023-01-09T04:41:14.181Z,71.54
2023-01-09T04:42:14.218Z,70.74
2023-01-09T04:43:14.125Z,70.42
2023-01-09T04:44:14.124Z,71.38
2023-01-09T04:45:14.114Z,71.87
2023-01-09T04:46:14.199Z,71.22
2023-01-09T04:47:14.088Z,69.61
2023-01-09T04:48:14.083Z,71.70
2023-01-09T04:49:14.083Z,72.67
2023-01-09T04:50:14.068Z,71.38
2023-01-09T04:51:14.138Z,69.93
2023-01-09T04:52:14.048Z,71.38
2023-01-09T04:53:14.028Z,72.19
2023-01-09T04:54:14.009Z,70.58
2023-01-09T04:55:14.002Z,72.51
2023-01-09T04:56:14.011Z,69.77
2023-01-09T04:57:13.983Z,71.06
2023-01-09T04:58:13.976Z,72.35
2023-01-09T04:59:13.957Z,72.03
2023-01-09T05:00:13.970Z,71.54
2023-01-09T05:01:14.028Z,70.09
2023-01-09T05:02:14.023Z,67.68
2023-01-09T05:03:13.938Z,70.74
2023-01-09T05:04:13.963Z,68.64
2023-01-09T05:05:13.902Z,71.06
2023-01-09T05:06:13.908Z,68.64
2023-01-09T05:07:13.879Z,68.80
2023-01-09T05:08:13.884Z,69.93
2023-01-09T05:09:13.866Z,69.61
2023-01-09T05:10:13.847Z,69.61
2023-01-09T05:11:13.847Z,69.77
2023-01-09T05:12:13.819Z,71.06
2023-01-09T05:13:13.844Z,70.58
2023-01-09T05:14:13.803Z,71.54
2023-01-09T05:15:13.795Z,69.13
2023-01-09T05:16:13.821Z,72.03
2023-01-09T05:17:13.774Z,71.87
2023-01-09T05:18:16.891Z,69.13
2023-01-09T05:19:45.638Z,69.77
2023-01-09T05:20:13.737Z,68.48
2023-01-09T05:21:13.749Z,71.70
2023-01-09T05:22:13.719Z,70.90
2023-01-09T05:23:13.728Z,70.90
2023-01-09T05:24:13.696Z,68.80
2023-01-09T05:25:13.675Z,69.93
2023-01-09T05:26:13.704Z,68.96
2023-01-09T05:27:13.682Z,70.42
2023-01-09T05:28:13.663Z,71.70
2023-01-09T05:29:13.638Z,71.54
2023-01-09T05:30:14.687Z,71.22
2023-01-09T05:31:14.665Z,70.90
2023-01-09T05:32:13.604Z,71.22
2023-01-09T05:33:13.590Z,70.58
2023-01-09T05:34:13.598Z,71.38
2023-01-09T05:35:13.585Z,69.93
2023-01-09T05:36:13.584Z,71.06
2023-01-09T05:37:13.555Z,71.22
2023-01-09T05:38:13.548Z,70.58
2023-01-09T05:39:13.532Z,71.70
2023-01-09T05:40:13.549Z,71.54
2023-01-09T05:41:13.523Z,69.93
2023-01-09T05:42:13.493Z,70.74
2023-01-09T05:43:13.486Z,71.38
2023-01-09T05:44:13.477Z,70.58
2023-01-09T05:45:13.524Z,70.74
2023-01-09T05:46:13.482Z,69.45
2023-01-09T05:47:13.456Z,69.77
2023-01-09T05:48:13.446Z,70.74
2023-01-09T05:49:13.416Z,69.45
2023-01-09T05:50:13.436Z,70.58
2023-01-09T05:51:13.433Z,70.09
2023-01-09T05:52:13.408Z,69.13
2023-01-09T05:53:13.404Z,68.64
2023-01-09T05:54:13.376Z,67.19
2023-01-09T05:55:13.368Z,68.32
2023-01-09T05:56:13.379Z,68.80
2023-01-09T05:57:13.344Z,68.16
2023-01-09T05:58:13.330Z,70.42
2023-01-09T05:59:13.330Z,69.45
2023-01-09T06:00:13.329Z,68.64
2023-01-09T06:01:13.371Z,67.35
2023-01-09T06:02:13.423Z,67.51
2023-01-09T06:03:13.365Z,68.16
2023-01-09T06:04:13.273Z,71.87
2023-01-09T06:05:13.257Z,70.74
2023-01-09T06:06:13.267Z,68.48
2023-01-09T06:07:17.835Z,70.25
2023-01-09T06:08:15.251Z,70.25
2023-01-09T06:09:13.231Z,70.58
2023-01-09T06:10:13.229Z,71.06
2023-01-09T06:11:13.229Z,70.09
2023-01-09T06:12:13.189Z,69.45
2023-01-09T06:13:13.255Z,69.45
2023-01-09T06:14:13.159Z,69.29
2023-01-09T06:15:13.156Z,68.32
2023-01-09T06:16:13.218Z,67.35
2023-01-09T06:17:13.121Z,69.45
2023-01-09T06:18:13.115Z,67.35
2023-01-09T06:19:13.120Z,68.80
2023-01-09T06:20:13.098Z,68.96
2023-01-09T06:21:13.109Z,68.64
2023-01-09T06:22:13.068Z,68.48
2023-01-09T06:23:13.711Z,68.00
2023-01-09T06:24:14.053Z,68.96
2023-01-09T06:25:13.043Z,69.13
2023-01-09T06:26:13.040Z,68.00
2023-01-09T06:27:13.056Z,68.80
2023-01-09T06:28:13.006Z,68.00
2023-01-09T06:29:12.984Z,68.48
2023-01-09T06:30:13.003Z,69.77
2023-01-09T06:31:13.053Z,69.45
2023-01-09T06:32:12.969Z,68.00
2023-01-09T06:33:12.943Z,68.96
2023-01-09T06:34:12.968Z,70.58
2023-01-09T06:35:12.927Z,69.93
2023-01-09T06:36:12.939Z,68.96
2023-01-09T06:37:12.916Z,69.29
2023-01-09T06:38:12.900Z,68.64
2023-01-09T06:39:12.925Z,68.96
2023-01-09T06:40:12.876Z,69.45
2023-01-09T06:41:12.884Z,70.25
2023-01-09T06:42:12.852Z,69.61
2023-01-09T06:43:12.852Z,68.96
2023-01-09T06:44:12.839Z,69.13
2023-01-09T06:45:12.826Z,68.32
2023-01-09T06:46:12.860Z,68.96
2023-01-09T06:47:12.803Z,68.48
2023-01-09T06:48:12.790Z,70.42
2023-01-09T06:49:12.777Z,69.45
2023-01-09T06:50:12.782Z,69.61
2023-01-09T06:51:12.758Z,69.93
2023-01-09T06:52:12.772Z,69.13
2023-01-09T06:53:12.747Z,70.25
2023-01-09T06:54:12.748Z,70.42
2023-01-09T06:55:12.746Z,70.42
2023-01-09T06:56:12.716Z,69.77
2023-01-09T06:57:12.706Z,69.77
2023-01-09T06:58:12.679Z,69.61
2023-01-09T06:59:12.679Z,70.25
2023-01-09T07:00:12.667Z,69.93
2023-01-09T07:01:12.728Z,68.64
2023-01-09T07:02:12.687Z,69.13
2023-01-09T07:03:12.637Z,69.29
2023-01-09T07:04:12.661Z,70.74
2023-01-09T07:05:12.603Z,68.80
2023-01-09T07:06:12.605Z,68.80
2023-01-09T07:07:12.607Z,69.93
2023-01-09T07:08:12.581Z,71.06
2023-01-09T07:09:12.585Z,70.74
2023-01-09T07:10:12.551Z,70.58
2023-01-09T07:11:12.551Z,68.80
2023-01-09T07:12:12.544Z,69.45
2023-01-09T07:13:12.545Z,68.32
2023-01-09T07:14:12.517Z,68.96
2023-01-09T07:15:12.515Z,69.77
2023-01-09T07:16:12.519Z,68.64
2023-01-09T07:17:12.502Z,68.48
2023-01-09T07:18:12.471Z,70.25
2023-01-09T07:19:12.472Z,69.61
2023-01-09T07:20:12.476Z,68.48
2023-01-09T07:21:12.442Z,69.29
2023-01-09T07:22:12.449Z,69.13
2023-01-09T07:23:12.423Z,68.32
2023-01-09T07:24:12.409Z,68.32
2023-01-09T07:25:12.400Z,68.80
2023-01-09T07:26:12.377Z,69.45
2023-01-09T07:27:13.395Z,68.16
2023-01-09T07:28:12.380Z,68.80
2023-01-09T07:29:12.350Z,68.32
2023-01-09T07:30:12.356Z,69.61
2023-01-09T07:31:12.367Z,67.03
2023-01-09T07:32:12.337Z,69.93
2023-01-09T07:33:12.313Z,67.19
2023-01-09T07:34:12.308Z,67.19
2023-01-09T07:35:12.298Z,69.93
2023-01-09T07:36:12.281Z,68.64
2023-01-09T07:37:12.285Z,68.32
2023-01-09T07:38:12.267Z,69.93
2023-01-09T07:39:12.248Z,66.55
2023-01-09T07:40:12.250Z,68.80
2023-01-09T07:41:12.219Z,69.29
2023-01-09T07:42:12.229Z,69.13
2023-01-09T07:43:12.198Z,66.87
2023-01-09T07:44:12.201Z,68.32
2023-01-09T07:45:12.172Z,66.39
2023-01-09T07:46:12.176Z,69.13
2023-01-09T07:47:12.180Z,71.54
2023-01-09T07:48:12.731Z,66.71
2023-01-09T07:49:12.133Z,68.80
2023-01-09T07:50:12.180Z,69.93
2023-01-09T07:51:12.116Z,70.58
2023-01-09T07:52:12.112Z,68.96
2023-01-09T07:53:12.099Z,67.84
2023-01-09T07:54:12.088Z,67.68
2023-01-09T07:55:12.070Z,68.32
2023-01-09T07:56:12.054Z,67.51
2023-01-09T07:57:12.060Z,68.00
2023-01-09T07:58:12.031Z,67.84
2023-01-09T07:59:12.021Z,68.32
2023-01-09T08:00:12.003Z,67.68
2023-01-09T08:01:12.072Z,68.96
2023-01-09T08:02:12.084Z,67.68
2023-01-09T08:03:12.069Z,68.00
2023-01-09T08:04:11.968Z,69.93
2023-01-09T08:05:11.944Z,67.84
2023-01-09T08:06:11.939Z,68.64
2023-01-09T08:07:12.950Z,69.29
2023-01-09T08:08:11.920Z,69.77
2023-01-09T08:09:11.909Z,67.84
2023-01-09T08:10:11.897Z,68.48
2023-01-09T08:11:11.894Z,68.64
2023-01-09T08:12:11.892Z,70.09
2023-01-09T08:13:11.870Z,69.13
2023-01-09T08:14:11.871Z,69.61
2023-01-09T08:15:11.856Z,69.45
2023-01-09T08:16:11.862Z,68.48
2023-01-09T08:17:11.838Z,69.77
2023-01-09T08:18:11.819Z,68.16
2023-01-09T08:19:11.803Z,68.96
2023-01-09T08:20:11.798Z,70.09
2023-01-09T08:21:11.799Z,68.48
2023-01-09T08:22:11.802Z,68.96
2023-01-09T08:23:11.758Z,69.61
2023-01-09T08:24:11.756Z,68.16
2023-01-09T08:25:12.658Z,68.96
2023-01-09T08:26:12.747Z,71.54
2023-01-09T08:27:11.723Z,68.48
2023-01-09T08:28:11.713Z,68.96
2023-01-09T08:29:11.728Z,67.03
2023-01-09T08:30:11.680Z,69.45
2023-01-09T08:31:11.698Z,69.45
2023-01-09T08:32:11.693Z,66.87
2023-01-09T08:33:11.662Z,68.64
2023-01-09T08:34:11.643Z,71.06
2023-01-09T08:35:12.640Z,70.09
2023-01-09T08:36:11.639Z,68.48
2023-01-09T08:37:11.638Z,69.29
2023-01-09T08:38:11.610Z,68.64
2023-01-09T08:39:11.595Z,68.64
2023-01-09T08:40:11.586Z,68.32
2023-01-09T08:41:11.639Z,69.29
2023-01-09T08:42:11.579Z,68.48
2023-01-09T08:43:11.562Z,68.80
2023-01-09T08:44:11.542Z,67.51
2023-01-09T08:45:11.530Z,69.45
2023-01-09T08:46:11.580Z,67.84
2023-01-09T08:47:11.528Z,68.00
2023-01-09T08:48:11.502Z,68.48
2023-01-09T08:49:11.472Z,68.48
2023-01-09T08:50:11.484Z,68.00
2023-01-09T08:51:11.473Z,70.58
2023-01-09T08:52:11.493Z,68.32
2023-01-09T08:53:11.465Z,67.35
2023-01-09T08:54:11.436Z,69.93
2023-01-09T08:55:11.447Z,68.48
2023-01-09T08:56:11.422Z,71.38
2023-01-09T08:57:11.415Z,67.84
2023-01-09T08:58:11.400Z,69.13
2023-01-09T08:59:11.387Z,68.80
2023-01-09T09:00:11.370Z,69.13
2023-01-09T09:01:11.417Z,69.61
2023-01-09T09:02:11.364Z,69.45
2023-01-09T09:03:11.337Z,69.45
2023-01-09T09:04:11.337Z,69.77
2023-01-09T09:05:11.298Z,69.45
2023-01-09T09:06:11.307Z,71.38
2023-01-09T09:07:11.312Z,70.42
2023-01-09T09:08:11.282Z,69.13
2023-01-09T09:09:11.274Z,69.29
2023-01-09T09:10:11.263Z,69.45
2023-01-09T09:11:11.253Z,69.61
2023-01-09T09:12:11.253Z,71.06
2023-01-09T09:13:11.225Z,70.42
2023-01-09T09:14:11.222Z,70.09
2023-01-09T09:15:11.212Z,68.16
2023-01-09T09:16:11.197Z,67.68
2023-01-09T09:17:11.212Z,67.35
2023-01-09T09:18:11.183Z,67.35
2023-01-09T09:19:11.171Z,69.61
2023-01-09T09:20:11.162Z,67.51
2023-01-09T09:21:12.057Z,67.19
2023-01-09T09:22:12.066Z,67.84
2023-01-09T09:23:11.129Z,69.93
2023-01-09T09:24:11.108Z,69.45
2023-01-09T09:25:11.109Z,68.00
2023-01-09T09:26:11.096Z,68.80
2023-01-09T09:27:11.107Z,68.80
2023-01-09T09:28:11.077Z,70.42
2023-01-09T09:29:11.755Z,68.64
2023-01-09T09:30:11.088Z,69.13
2023-01-09T09:31:11.070Z,66.23
2023-01-09T09:32:11.058Z,67.84
2023-01-09T09:33:11.020Z,68.32
2023-01-09T09:34:11.012Z,68.80
2023-01-09T09:35:11.013Z,67.51
2023-01-09T09:36:10.991Z,69.61
2023-01-09T09:37:11.589Z,68.00
2023-01-09T09:38:10.979Z,66.71
2023-01-09T09:39:11.136Z,67.68
2023-01-09T09:40:18.354Z,68.00
2023-01-09T09:41:12.948Z,67.51
2023-01-09T09:42:10.949Z,67.68
2023-01-09T09:43:10.923Z,67.84
2023-01-09T09:44:10.914Z,67.35
2023-01-09T09:45:10.908Z,67.68
2023-01-09T09:46:10.936Z,69.13
2023-01-09T09:47:10.934Z,68.32
2023-01-09T09:48:10.891Z,89.75
2023-01-09T09:49:10.853Z,80.08
2023-01-09T09:50:10.850Z,67.35
2023-01-09T09:51:10.844Z,68.32
2023-01-09T09:52:10.868Z,67.84
2023-01-09T09:53:10.841Z,67.68
2023-01-09T09:54:13.635Z,68.80
2023-01-09T09:55:10.809Z,67.51
2023-01-09T09:56:10.816Z,69.93
2023-01-09T09:57:10.784Z,67.35
2023-01-09T09:58:10.811Z,67.03
2023-01-09T09:59:10.759Z,67.03
2023-01-09T10:00:11.762Z,67.51
2023-01-09T10:01:10.742Z,68.48
2023-01-09T10:02:10.749Z,67.19
2023-01-09T10:03:10.782Z,66.39
2023-01-09T10:04:10.716Z,67.19
2023-01-09T10:05:10.695Z,69.61
2023-01-09T10:06:11.703Z,66.71
2023-01-09T10:07:10.682Z,67.68
2023-01-09T10:08:15.848Z,68.64
2023-01-09T10:09:11.655Z,66.87
2023-01-09T10:10:10.656Z,66.71
2023-01-09T10:11:10.644Z,68.32
2023-01-09T10:12:10.630Z,68.48
2023-01-09T10:13:11.661Z,69.45
2023-01-09T10:14:22.882Z,69.29
2023-01-09T10:15:12.595Z,68.48
2023-01-09T10:16:10.647Z,67.51
2023-01-09T10:17:10.572Z,68.00
2023-01-09T10:18:10.596Z,68.48
2023-01-09T10:19:10.558Z,68.32
2023-01-09T10:20:10.567Z,69.29
2023-01-09T10:21:10.550Z,68.64
2023-01-09T10:22:10.542Z,69.45
2023-01-09T10:23:10.544Z,67.03
2023-01-09T10:24:10.536Z,68.96
2023-01-09T10:25:10.499Z,68.64
2023-01-09T10:26:10.497Z,68.00
2023-01-09T10:27:10.493Z,67.35
2023-01-09T10:28:10.510Z,68.64
2023-01-09T10:29:10.458Z,68.96
2023-01-09T10:30:10.454Z,68.32
2023-01-09T10:31:11.460Z,67.68
2023-01-09T10:32:10.435Z,69.61
2023-01-09T10:33:10.443Z,69.61
2023-01-09T10:34:10.448Z,70.58
2023-01-09T10:35:10.409Z,69.93
2023-01-09T10:36:10.403Z,67.84
2023-01-09T10:37:10.477Z,69.45
2023-01-09T10:38:10.397Z,69.45
2023-01-09T10:39:10.376Z,68.64
2023-01-09T10:40:10.368Z,70.09
2023-01-09T10:41:10.355Z,67.51
2023-01-09T10:42:10.353Z,72.99
2023-01-09T10:43:10.345Z,68.00
2023-01-09T10:44:11.323Z,68.48
2023-01-09T10:45:10.378Z,69.45
2023-01-09T10:46:10.367Z,68.80
2023-01-09T10:47:10.289Z,68.16
2023-01-09T10:48:10.307Z,69.93
2023-01-09T10:49:10.262Z,67.51
2023-01-09T10:50:10.258Z,67.35
2023-01-09T10:51:10.254Z,68.16
2023-01-09T10:52:10.244Z,69.61
2023-01-09T10:53:10.231Z,67.68
2023-01-09T10:54:10.209Z,68.96
2023-01-09T10:55:10.217Z,68.16
2023-01-09T10:56:10.193Z,69.45
2023-01-09T10:57:10.183Z,67.03
2023-01-09T10:58:10.191Z,67.68
2023-01-09T10:59:10.231Z,68.48
2023-01-09T11:00:10.161Z,69.77
2023-01-09T11:01:10.157Z,68.16
2023-01-09T11:02:10.163Z,67.35
2023-01-09T11:03:10.180Z,68.96
2023-01-09T11:04:10.119Z,68.16
2023-01-09T11:05:10.099Z,68.48
2023-01-09T11:06:10.098Z,69.93
2023-01-09T11:07:10.086Z,70.25
2023-01-09T11:08:10.084Z,68.48
2023-01-09T11:09:10.054Z,68.32
2023-01-09T11:10:10.060Z,67.84
2023-01-09T11:11:10.041Z,68.32
2023-01-09T11:12:10.035Z,69.29
2023-01-09T11:13:10.037Z,69.61
2023-01-09T11:14:10.015Z,69.13
2023-01-09T11:15:10.017Z,68.96
2023-01-09T11:16:10.043Z,68.48
2023-01-09T11:17:10.000Z,68.64
2023-01-09T11:18:09.998Z,67.68
2023-01-09T11:19:09.978Z,69.13
2023-01-09T11:20:36.351Z,70.42
2023-01-09T11:21:09.953Z,68.00
2023-01-09T11:22:09.933Z,69.61
2023-01-09T11:23:09.950Z,69.13
2023-01-09T11:24:09.915Z,69.45
2023-01-09T11:25:09.910Z,68.00
2023-01-09T11:26:11.019Z,68.00
2023-01-09T11:27:10.883Z,68.64
2023-01-09T11:28:10.927Z,69.45
2023-01-09T11:29:09.870Z,68.16
2023-01-09T11:30:09.871Z,68.64
2023-01-09T11:31:09.909Z,69.61
2023-01-09T11:32:09.838Z,69.13
2023-01-09T11:33:09.857Z,67.19
2023-01-09T11:34:09.811Z,67.19
2023-01-09T11:35:09.809Z,70.58
2023-01-09T11:36:09.810Z,68.96
2023-01-09T11:37:09.879Z,67.68
2023-01-09T11:38:09.815Z,68.96
2023-01-09T11:39:09.774Z,68.48
2023-01-09T11:40:09.763Z,68.48
2023-01-09T11:41:09.755Z,67.68
2023-01-09T11:42:09.746Z,68.96
2023-01-09T11:43:09.755Z,67.68
2023-01-09T11:44:09.723Z,67.35
2023-01-09T11:45:09.710Z,67.84
2023-01-09T11:46:09.690Z,68.16
2023-01-09T11:47:09.691Z,69.61
2023-01-09T11:48:09.700Z,69.13
2023-01-09T11:49:09.665Z,71.38
2023-01-09T11:50:09.655Z,67.03
2023-01-09T11:51:09.651Z,68.00
2023-01-09T11:52:09.638Z,69.93
2023-01-09T11:53:09.647Z,69.45
2023-01-09T11:54:09.611Z,68.00
2023-01-09T11:55:09.612Z,67.03
2023-01-09T11:56:09.602Z,67.68
2023-01-09T11:57:09.582Z,66.71
2023-01-09T11:58:09.597Z,70.58
2023-01-09T11:59:09.571Z,67.84
2023-01-09T12:00:09.558Z,67.35
2023-01-09T12:01:09.542Z,68.48
2023-01-09T12:02:09.594Z,69.93
2023-01-09T12:03:09.612Z,66.71
2023-01-09T12:04:09.541Z,68.00
2023-01-09T12:05:09.516Z,67.68
2023-01-09T12:06:09.524Z,68.32
2023-01-09T12:07:09.504Z,67.51
2023-01-09T12:08:09.511Z,69.61
2023-01-09T12:09:09.488Z,70.42
2023-01-09T12:10:09.467Z,69.61
2023-01-09T12:11:10.464Z,69.61
2023-01-09T12:12:09.459Z,68.48
2023-01-09T12:13:09.447Z,69.45
2023-01-09T12:14:09.428Z,68.00
2023-01-09T12:15:10.187Z,68.96
2023-01-09T12:16:10.452Z,69.61
2023-01-09T12:17:09.388Z,68.80
2023-01-09T12:18:09.406Z,69.13
2023-01-09T12:19:09.378Z,73.80
2023-01-09T12:20:09.369Z,71.87
2023-01-09T12:21:09.352Z,68.48
2023-01-09T12:22:09.353Z,68.00
2023-01-09T12:23:09.378Z,69.13
2023-01-09T12:24:09.343Z,68.64
2023-01-09T12:25:09.323Z,69.77
2023-01-09T12:26:09.319Z,68.48
2023-01-09T12:27:09.306Z,69.29
2023-01-09T12:28:09.316Z,67.51
2023-01-09T12:29:09.293Z,67.84
2023-01-09T12:30:09.266Z,68.64
2023-01-09T12:31:09.276Z,67.84
2023-01-09T12:32:09.341Z,68.48
2023-01-09T12:33:09.269Z,68.96
2023-01-09T12:34:09.251Z,68.96
2023-01-09T12:35:09.219Z,72.51
2023-01-09T12:36:09.223Z,68.00
2023-01-09T12:37:11.511Z,69.29
2023-01-09T12:38:09.212Z,68.48
2023-01-09T12:39:09.165Z,68.96
2023-01-09T12:40:09.164Z,69.29
2023-01-09T12:41:09.153Z,69.29
2023-01-09T12:42:09.720Z,68.96
2023-01-09T12:43:09.133Z,68.32
2023-01-09T12:44:09.147Z,68.48
2023-01-09T12:45:09.099Z,68.96
2023-01-09T12:46:09.131Z,71.06
2023-01-09T12:47:09.095Z,68.80
2023-01-09T12:48:09.094Z,69.29
2023-01-09T12:49:09.083Z,69.93
2023-01-09T12:50:09.063Z,68.16
2023-01-09T12:51:09.067Z,67.51
2023-01-09T12:52:09.062Z,69.45